createdAt,value
2023-02-05T00:01:08.885Z,-6.29
2023-02-05T00:03:42.788Z,-6.31
2023-02-05T00:06:10.891Z,-6.34
2023-02-05T00:08:38.775Z,-6.36
2023-02-05T00:11:10.003Z,-6.40
2023-02-05T00:13:41.841Z,-6.42
2023-02-05T00:16:17.119Z,-6.45
2023-02-05T00:18:46.002Z,-6.50
2023-02-05T00:21:14.853Z,-6.54
2023-02-05T00:23:43.283Z,-6.57
2023-02-05T00:26:13.510Z,-6.61
2023-02-05T00:28:42.593Z,-6.66
2023-02-05T00:31:13.799Z,-6.71
2023-02-05T00:33:42.868Z,-6.75
2023-02-05T00:36:12.947Z,-6.78
2023-02-05T00:38:43.282Z,-6.81
2023-02-05T00:41:12.193Z,-6.80
2023-02-05T00:43:41.498Z,-6.76
2023-02-05T00:46:10.816Z,-6.72
2023-02-05T00:48:40.111Z,-6.68
2023-02-05T00:51:10.708Z,-6.63
2023-02-05T00:53:38.761Z,-6.57
2023-02-05T00:56:07.061Z,-6.52
2023-02-05T00:58:36.951Z,-6.46
2023-02-05T01:01:06.152Z,-6.39
2023-02-05T01:03:34.580Z,-6.31
2023-02-05T01:06:03.511Z,-6.24
2023-02-05T01:08:32.101Z,-6.17
2023-02-05T01:11:01.361Z,-6.10
2023-02-05T01:13:29.402Z,-6.05
2023-02-05T01:15:57.486Z,-5.98
2023-02-05T01:18:25.549Z,-5.92
2023-02-05T01:20:53.632Z,-5.87
2023-02-05T01:23:21.874Z,-5.82
2023-02-05T01:25:49.890Z,-5.77
2023-02-05T01:28:19.143Z,-5.73
2023-02-05T01:30:49.518Z,-5.69
2023-02-05T01:33:19.400Z,-5.64
2023-02-05T01:35:47.395Z,-5.61
2023-02-05T01:38:15.971Z,-5.58
2023-02-05T01:40:44.183Z,-5.54
2023-02-05T01:43:18.087Z,-5.51
2023-02-05T01:45:51.072Z,-5.49
2023-02-05T01:48:25.106Z,-5.46
2023-02-05T01:50:57.388Z,-5.43
2023-02-05T01:53:30.073Z,-5.41
2023-02-05T01:56:01.564Z,-5.38
2023-02-05T01:58:40.844Z,-5.36
2023-02-05T02:01:08.866Z,-5.34
2023-02-05T02:03:38.640Z,-5.32
2023-02-05T02:06:06.885Z,-5.29
2023-02-05T02:08:34.975Z,-5.27
2023-02-05T02:11:06.609Z,-5.25
2023-02-05T02:13:36.972Z,-5.25
2023-02-05T02:16:07.955Z,-5.22
2023-02-05T02:18:38.204Z,-5.21
2023-02-05T02:21:28.827Z,-5.20
2023-02-05T02:24:17.198Z,-5.18
2023-02-05T02:27:12.781Z,-5.17
2023-02-05T02:29:58.830Z,-5.16
2023-02-05T02:32:41.319Z,-5.15
2023-02-05T02:35:36.780Z,-5.15
2023-02-05T02:38:17.141Z,-5.13
2023-02-05T02:40:52.248Z,-5.10
2023-02-05T02:43:34.583Z,-5.07
2023-02-05T02:46:08.317Z,-5.06
2023-02-05T02:48:39.939Z,-5.03
2023-02-05T02:51:10.227Z,-5.01
2023-02-05T02:53:45.262Z,-4.99
2023-02-05T02:56:16.509Z,-4.96
2023-02-05T02:58:53.214Z,-4.94
2023-02-05T03:01:25.744Z,-4.92
2023-02-05T03:04:08.567Z,-4.89
2023-02-05T03:06:40.119Z,-4.87
2023-02-05T03:09:22.328Z,-4.84
2023-02-05T03:11:50.362Z,-4.83
2023-02-05T03:14:19.685Z,-4.81
2023-02-05T03:16:47.930Z,-4.79
2023-02-05T03:19:16.599Z,-4.77
2023-02-05T03:21:50.535Z,-4.77
2023-02-05T03:24:18.625Z,-4.76
2023-02-05T03:26:46.639Z,-4.74
2023-02-05T03:29:27.392Z,-4.73
2023-02-05T03:32:19.434Z,-4.72
2023-02-05T03:34:53.776Z,-4.70
2023-02-05T03:37:31.419Z,-4.67
2023-02-05T03:40:05.133Z,-4.65
2023-02-05T03:42:42.918Z,-4.63
2023-02-05T03:45:17.933Z,-4.60
2023-02-05T03:48:15.956Z,-4.57
2023-02-05T03:50:47.891Z,-4.55
2023-02-05T03:53:30.945Z,-4.53
2023-02-05T03:56:35.547Z,-4.51
2023-02-05T03:59:05.821Z,-4.48
2023-02-05T04:05:22.925Z,-4.44
2023-02-05T04:07:52.469Z,-4.42
2023-02-05T04:10:22.378Z,-4.41
2023-02-05T04:12:51.516Z,-4.43
2023-02-05T04:15:20.321Z,-4.44
2023-02-05T04:17:51.585Z,-4.45
2023-02-05T04:20:19.941Z,-4.45
2023-02-05T04:22:48.303Z,-4.47
2023-02-05T04:25:17.165Z,-4.47
2023-02-05T04:27:46.407Z,-4.47
2023-02-05T04:34:37.904Z,-4.50
2023-02-05T04:37:09.765Z,-4.49
2023-02-05T04:39:38.045Z,-4.48
2023-02-05T04:42:06.098Z,-4.47
2023-02-05T04:44:34.340Z,-4.45
2023-02-05T04:47:02.357Z,-4.45
2023-02-05T04:49:32.586Z,-4.44
2023-02-05T04:52:01.161Z,-4.44
2023-02-05T04:54:30.019Z,-4.44
2023-02-05T04:56:58.120Z,-4.44
2023-02-05T04:59:26.475Z,-4.43
2023-02-05T05:01:54.510Z,-4.44
2023-02-05T05:04:23.151Z,-4.45
2023-02-05T05:06:51.131Z,-4.45
2023-02-05T05:09:21.077Z,-4.45
2023-02-05T05:11:49.189Z,-4.45
2023-02-05T05:14:17.133Z,-4.45
2023-02-05T05:16:46.803Z,-4.46
2023-02-05T05:19:14.818Z,-4.46
2023-02-05T05:21:42.944Z,-4.48
2023-02-05T05:24:11.189Z,-4.48
2023-02-05T05:26:43.875Z,-4.47
2023-02-05T05:29:12.754Z,-4.46
2023-02-05T05:31:41.737Z,-4.46
2023-02-05T05:34:09.918Z,-4.46
2023-02-05T05:36:40.237Z,-4.48
2023-02-05T05:39:26.961Z,-4.49
2023-02-05T05:42:13.451Z,-4.50
2023-02-05T05:44:42.474Z,-4.51
2023-02-05T05:47:10.459Z,-4.50
2023-02-05T05:49:38.449Z,-4.48
2023-02-05T05:52:06.390Z,-4.48
2023-02-05T05:54:34.383Z,-4.48
2023-02-05T05:57:02.490Z,-4.47
2023-02-05T05:59:31.230Z,-4.47
2023-02-05T06:02:04.285Z,-4.47
2023-02-05T06:04:32.419Z,-4.46
2023-02-05T06:07:02.376Z,-4.45
2023-02-05T06:09:30.618Z,-4.45
2023-02-05T06:11:58.752Z,-4.45
2023-02-05T06:14:26.883Z,-4.45
2023-02-05T06:16:55.991Z,-4.44
2023-02-05T06:19:24.241Z,-4.44
2023-02-05T06:21:52.526Z,-4.44
2023-02-05T06:24:21.467Z,-4.42
2023-02-05T06:26:49.559Z,-4.41
2023-02-05T06:29:19.110Z,-4.39
2023-02-05T06:31:47.541Z,-4.36
2023-02-05T06:34:15.581Z,-4.34
2023-02-05T06:36:43.724Z,-4.32
2023-02-05T06:39:11.802Z,-4.30
2023-02-05T06:41:40.082Z,-4.28
2023-02-05T06:44:08.240Z,-4.26
2023-02-05T06:46:36.472Z,-4.24
2023-02-05T06:49:04.601Z,-4.22
2023-02-05T06:51:32.948Z,-4.20
2023-02-05T06:54:01.457Z,-4.18
2023-02-05T06:56:29.596Z,-4.15
2023-02-05T06:58:57.601Z,-4.12
2023-02-05T07:01:25.813Z,-4.10
2023-02-05T07:03:56.242Z,-4.09
2023-02-05T07:06:25.298Z,-4.07
2023-02-05T07:08:53.792Z,-4.05
2023-02-05T07:11:23.648Z,-4.01
2023-02-05T07:13:52.605Z,-3.98
2023-02-05T07:16:20.944Z,-3.95
2023-02-05T07:18:48.914Z,-3.91
2023-02-05T07:21:17.527Z,-3.87
2023-02-05T07:23:46.225Z,-3.85
2023-02-05T07:26:16.532Z,-3.82
2023-02-05T07:28:45.612Z,-3.79
2023-02-05T07:31:16.494Z,-3.74
2023-02-05T07:33:46.723Z,-3.68
2023-02-05T07:36:17.762Z,-3.62
2023-02-05T07:38:47.906Z,-3.56
2023-02-05T07:41:17.718Z,-3.51
2023-02-05T07:43:46.253Z,-3.49
2023-02-05T07:46:15.313Z,-3.45
2023-02-05T07:48:43.479Z,-3.38
2023-02-05T07:51:30.113Z,-3.32
2023-02-05T07:53:58.291Z,-3.24
2023-02-05T07:56:26.462Z,-3.14
2023-02-05T07:58:54.835Z,-3.08
2023-02-05T08:01:22.885Z,-3.03
2023-02-05T08:03:50.986Z,-2.96
2023-02-05T08:06:19.007Z,-2.88
2023-02-05T08:08:47.044Z,-2.82
2023-02-05T08:11:16.498Z,-2.74
2023-02-05T08:13:45.836Z,-2.68
2023-02-05T08:16:15.945Z,-2.59
2023-02-05T08:18:49.245Z,-2.50
2023-02-05T08:21:19.780Z,-2.49
2023-02-05T08:23:49.301Z,-2.47
2023-02-05T08:26:18.743Z,-2.43
2023-02-05T08:28:46.853Z,-2.36
2023-02-05T08:31:18.904Z,-2.07
2023-02-05T08:33:47.968Z,-1.67
2023-02-05T08:36:15.985Z,-1.50
2023-02-05T08:38:44.100Z,-1.44
2023-02-05T08:41:12.895Z,-1.42
2023-02-05T08:43:49.689Z,-1.45
2023-02-05T08:46:21.075Z,-1.50
2023-02-05T08:48:49.586Z,-1.47
2023-02-05T08:51:19.752Z,-1.43
2023-02-05T08:53:47.967Z,-1.41
2023-02-05T08:56:19.233Z,-1.40
2023-02-05T08:58:48.652Z,-1.37
2023-02-05T09:01:17.617Z,-1.31
2023-02-05T09:03:46.396Z,-1.27
2023-02-05T09:06:15.931Z,-1.25
2023-02-05T09:08:44.082Z,-1.25
2023-02-05T09:11:13.547Z,-1.25
2023-02-05T09:13:41.799Z,-1.28
2023-02-05T09:16:12.850Z,-1.26
2023-02-05T09:18:41.209Z,-1.19
2023-02-05T09:21:11.024Z,-1.20
2023-02-05T09:23:39.372Z,-1.24
2023-02-05T09:26:09.420Z,-1.30
2023-02-05T09:28:38.694Z,-1.32
2023-02-05T09:31:09.225Z,-1.30
2023-02-05T09:33:37.897Z,-1.29
2023-02-05T09:36:13.032Z,-1.27
2023-02-05T09:38:42.036Z,-1.23
2023-02-05T09:41:13.279Z,-1.17
2023-02-05T09:44:17.203Z,-1.10
2023-02-05T09:46:56.546Z,-0.97
2023-02-05T09:49:38.747Z,-0.88
2023-02-05T09:52:27.312Z,-0.81
2023-02-05T09:55:01.447Z,-0.79
2023-02-05T09:57:34.341Z,-0.74
2023-02-05T10:00:05.654Z,-0.69
2023-02-05T10:02:51.010Z,-0.61
2023-02-05T10:05:24.972Z,-0.55
2023-02-05T10:08:22.913Z,-0.49
2023-02-05T10:10:54.321Z,-0.38
2023-02-05T10:13:31.444Z,-0.30
2023-02-05T10:16:29.838Z,-0.20
2023-02-05T10:19:16.656Z,-0.20
2023-02-05T10:21:47.865Z,-0.26
2023-02-05T10:24:41.364Z,-0.29
2023-02-05T10:27:19.160Z,-0.33
2023-02-05T10:30:07.117Z,-0.40
2023-02-05T10:32:57.642Z,-0.45
2023-02-05T10:35:44.438Z,-0.56
2023-02-05T10:38:39.427Z,-0.67
2023-02-05T10:41:12.335Z,-0.75
2023-02-05T10:44:00.292Z,-0.83
2023-02-05T10:46:35.720Z,-0.94
2023-02-05T10:49:12.507Z,-0.97
2023-02-05T10:51:43.769Z,-0.97
2023-02-05T10:54:26.429Z,-0.95
2023-02-05T10:56:58.955Z,-0.90
2023-02-05T10:59:36.570Z,-0.83
2023-02-05T11:04:46.008Z,-0.83
2023-02-05T11:07:33.042Z,-0.83
2023-02-05T11:10:15.594Z,-0.77
2023-02-05T11:12:46.823Z,-0.70
2023-02-05T11:15:33.705Z,-0.68
2023-02-05T11:18:05.527Z,-0.70
2023-02-05T11:20:35.758Z,-0.69
2023-02-05T11:23:06.647Z,-0.66
2023-02-05T11:25:35.563Z,-0.66
2023-02-05T11:28:05.792Z,-0.69
2023-02-05T11:30:54.304Z,-0.70
2023-02-05T11:33:22.824Z,-0.72
2023-02-05T11:35:57.028Z,-0.77
2023-02-05T11:38:33.538Z,-0.81
2023-02-05T11:41:06.864Z,-0.81
2023-02-05T11:43:38.334Z,-0.79
2023-02-05T11:46:16.493Z,-0.79
2023-02-05T11:48:56.775Z,-0.82
2023-02-05T11:51:29.770Z,-0.82
2023-02-05T11:54:01.362Z,-0.75
2023-02-05T11:56:29.621Z,-0.69
2023-02-05T11:59:19.403Z,-0.60
2023-02-05T12:01:48.410Z,-0.52
2023-02-05T12:04:20.523Z,-0.50
2023-02-05T12:07:15.483Z,-0.44
2023-02-05T12:09:43.730Z,-0.35
2023-02-05T12:12:28.878Z,-0.31
2023-02-05T12:15:15.625Z,-0.24
2023-02-05T12:18:01.855Z,-0.21
2023-02-05T12:20:42.883Z,-0.25
2023-02-05T12:23:48.196Z,-0.29
2023-02-05T12:26:40.636Z,-0.34
2023-02-05T12:29:44.163Z,-0.34
2023-02-05T12:32:27.680Z,-0.30
2023-02-05T12:34:58.919Z,-0.28
2023-02-05T12:37:52.183Z,-0.31
2023-02-05T12:40:30.046Z,-0.31
2023-02-05T12:43:02.862Z,-0.31
2023-02-05T12:45:39.273Z,-0.30
2023-02-05T12:48:39.063Z,-0.26
2023-02-05T12:51:19.827Z,-0.23
2023-02-05T12:54:13.142Z,-0.21
2023-02-05T12:56:55.241Z,-0.22
2023-02-05T13:00:03.509Z,-0.27
2023-02-05T13:02:49.893Z,-0.36
2023-02-05T13:05:56.492Z,-0.38
2023-02-05T13:08:45.575Z,-0.41
2023-02-05T13:11:25.441Z,-0.47
2023-02-05T13:14:11.913Z,-0.55
2023-02-05T13:16:54.156Z,-0.64
2023-02-05T13:19:41.135Z,-0.70
2023-02-05T13:22:39.418Z,-0.73
2023-02-05T13:25:38.942Z,-0.74
2023-02-05T13:28:41.088Z,-0.75
2023-02-05T13:31:25.116Z,-0.75
2023-02-05T13:33:56.717Z,-0.72
2023-02-05T13:36:24.806Z,-0.72
2023-02-05T13:39:11.563Z,-0.71
2023-02-05T13:42:01.124Z,-0.69
2023-02-05T13:45:01.461Z,-0.70
2023-02-05T13:47:47.627Z,-0.77
2023-02-05T13:50:28.188Z,-0.82
2023-02-05T13:53:14.453Z,-0.89
2023-02-05T13:56:14.378Z,-0.94
2023-02-05T13:58:49.605Z,-0.97
2023-02-05T14:01:18.244Z,-1.02
2023-02-05T14:03:59.536Z,-1.05
2023-02-05T14:06:41.159Z,-1.08
2023-02-05T14:09:24.752Z,-1.08
2023-02-05T14:11:59.291Z,-1.10
2023-02-05T14:14:34.926Z,-1.14
2023-02-05T14:17:28.861Z,-1.16
2023-02-05T14:19:58.960Z,-1.19
2023-02-05T14:22:42.480Z,-1.22
2023-02-05T14:25:38.132Z,-1.26
2023-02-05T14:28:09.013Z,-1.29
2023-02-05T14:30:51.947Z,-1.33
2023-02-05T14:33:26.269Z,-1.37
2023-02-05T14:36:10.860Z,-1.38
2023-02-05T14:38:42.194Z,-1.38
2023-02-05T14:41:14.648Z,-1.39
2023-02-05T14:43:46.737Z,-1.43
2023-02-05T14:46:25.535Z,-1.48
2023-02-05T14:48:58.240Z,-1.50
2023-02-05T14:51:31.479Z,-1.52
2023-02-05T14:54:05.336Z,-1.54
2023-02-05T14:56:46.791Z,-1.57
2023-02-05T14:59:20.940Z,-1.60
2023-02-05T15:01:54.267Z,-1.62
2023-02-05T15:04:49.630Z,-1.67
2023-02-05T15:07:27.721Z,-1.71
2023-02-05T15:10:18.437Z,-1.74
2023-02-05T15:12:49.674Z,-1.77
2023-02-05T15:15:28.006Z,-1.81
2023-02-05T15:18:02.615Z,-1.83
2023-02-05T15:20:36.060Z,-1.87
2023-02-05T15:23:06.477Z,-1.89
2023-02-05T15:25:42.666Z,-1.90
2023-02-05T15:28:29.613Z,-1.92
2023-02-05T15:31:17.473Z,-1.94
2023-02-05T15:33:58.770Z,-1.97
2023-02-05T15:36:46.279Z,-1.99
2023-02-05T15:39:30.440Z,-2.00
2023-02-05T15:42:01.554Z,-2.02
2023-02-05T15:44:31.979Z,-2.03
2023-02-05T15:47:04.722Z,-2.03
2023-02-05T15:49:46.076Z,-2.04
2023-02-05T15:52:23.336Z,-2.06
2023-02-05T15:54:55.562Z,-2.08
2023-02-05T15:57:29.756Z,-2.09
2023-02-05T16:00:00.853Z,-2.10
2023-02-05T16:02:57.530Z,-2.11
2023-02-05T16:05:27.500Z,-2.11
2023-02-05T16:07:57.563Z,-2.12
2023-02-05T16:10:28.995Z,-2.14
2023-02-05T16:13:14.341Z,-2.16
2023-02-05T16:15:45.472Z,-2.18
2023-02-05T16:18:20.516Z,-2.21
2023-02-05T16:20:57.632Z,-2.24
2023-02-05T16:23:31.909Z,-2.27
2023-02-05T16:26:15.896Z,-2.31
2023-02-05T16:28:58.811Z,-2.34
2023-02-05T16:31:29.977Z,-2.37
2023-02-05T16:34:05.710Z,-2.38
2023-02-05T16:36:38.897Z,-2.39
2023-02-05T16:39:30.125Z,-2.42
2023-02-05T16:42:17.542Z,-2.44
2023-02-05T16:44:48.710Z,-2.47
2023-02-05T16:47:20.205Z,-2.51
2023-02-05T16:49:49.728Z,-2.51
2023-02-05T16:52:36.460Z,-2.54
2023-02-05T16:55:07.652Z,-2.56
2023-02-05T16:57:38.942Z,-2.59
2023-02-05T17:00:23.952Z,-2.61
2023-02-05T17:02:59.107Z,-2.63
2023-02-05T17:05:29.366Z,-2.64
2023-02-05T17:08:09.150Z,-2.65
2023-02-05T17:10:52.912Z,-2.67
2023-02-05T17:13:42.516Z,-2.69
2023-02-05T17:16:30.941Z,-2.71
2023-02-05T17:19:00.957Z,-2.74
2023-02-05T17:21:34.515Z,-2.78
2023-02-05T17:24:06.380Z,-2.83
2023-02-05T17:26:39.535Z,-2.88
2023-02-05T17:29:13.928Z,-2.93
2023-02-05T17:31:42.305Z,-2.97
2023-02-05T17:34:11.810Z,-3.01
2023-02-05T17:36:39.832Z,-3.05
2023-02-05T17:39:07.988Z,-3.10
2023-02-05T17:41:55.977Z,-3.13
2023-02-05T17:44:24.357Z,-3.18
2023-02-05T17:46:54.395Z,-3.21
2023-02-05T17:49:22.778Z,-3.22
2023-02-05T17:51:50.949Z,-3.24
2023-02-05T17:54:21.858Z,-3.23
2023-02-05T17:56:51.051Z,-3.23
2023-02-05T17:59:22.418Z,-3.23
2023-02-05T18:01:51.871Z,-3.23
2023-02-05T18:04:20.373Z,-3.22
2023-02-05T18:06:49.996Z,-3.20
2023-02-05T18:09:20.478Z,-3.19
2023-02-05T18:11:48.773Z,-3.19
2023-02-05T18:14:16.929Z,-3.18
2023-02-05T18:16:45.614Z,-3.18
2023-02-05T18:19:14.083Z,-3.17
2023-02-05T18:21:42.506Z,-3.17
2023-02-05T18:24:10.542Z,-3.16
2023-02-05T18:26:38.626Z,-3.16
2023-02-05T18:29:06.737Z,-3.16
2023-02-05T18:31:35.376Z,-3.16
2023-02-05T18:34:03.575Z,-3.16
2023-02-05T18:36:31.652Z,-3.16
2023-02-05T18:38:59.794Z,-3.16
2023-02-05T18:41:28.943Z,-3.16
2023-02-05T18:43:58.433Z,-3.15
2023-02-05T18:46:26.626Z,-3.15
2023-02-05T18:48:55.790Z,-3.14
2023-02-05T18:51:24.182Z,-3.15
2023-02-05T18:53:52.313Z,-3.18
2023-02-05T18:56:26.671Z,-3.22
2023-02-05T18:59:02.443Z,-3.26
2023-02-05T19:04:42.396Z,-3.36
2023-02-05T19:07:10.467Z,-3.42
2023-02-05T19:09:38.468Z,-3.47
2023-02-05T19:12:07.011Z,-3.53
2023-02-05T19:14:35.091Z,-3.60
2023-02-05T19:17:03.291Z,-3.65
2023-02-05T19:19:32.040Z,-3.69
2023-02-05T19:22:02.127Z,-3.75
2023-02-05T19:24:30.436Z,-3.80
2023-02-05T19:27:02.097Z,-3.84
2023-02-05T19:29:30.717Z,-3.89
2023-02-05T19:31:59.070Z,-3.94
2023-02-05T19:34:27.963Z,-4.02
2023-02-05T19:36:56.138Z,-4.11
2023-02-05T19:39:25.302Z,-4.19
2023-02-05T19:41:53.486Z,-4.26
2023-02-05T19:44:21.544Z,-4.34
2023-02-05T19:46:50.510Z,-4.44
2023-02-05T19:49:21.057Z,-4.56
2023-02-05T19:51:55.296Z,-4.67
2023-02-05T19:54:23.709Z,-4.77
2023-02-05T19:56:51.973Z,-4.88
2023-02-05T19:59:21.440Z,-4.98
2023-02-05T20:01:50.058Z,-5.08
2023-02-05T20:04:24.948Z,-5.18
2023-02-05T20:06:58.878Z,-5.28
2023-02-05T20:09:27.790Z,-5.37
2023-02-05T20:11:56.865Z,-5.46
2023-02-05T20:14:25.170Z,-5.55
2023-02-05T20:16:54.154Z,-5.63
2023-02-05T20:19:22.898Z,-5.72
2023-02-05T20:21:51.189Z,-5.82
2023-02-05T20:24:19.275Z,-5.90
2023-02-05T20:26:50.284Z,-5.97
2023-02-05T20:29:36.867Z,-6.04
2023-02-05T20:32:05.585Z,-6.12
2023-02-05T20:34:35.959Z,-6.21
2023-02-05T20:37:07.438Z,-6.28
2023-02-05T20:39:39.679Z,-6.34
2023-02-05T20:42:10.700Z,-6.39
2023-02-05T20:44:39.410Z,-6.44
2023-02-05T20:47:10.690Z,-6.48
2023-02-05T20:49:40.272Z,-6.53
2023-02-05T20:52:11.902Z,-6.58
2023-02-05T20:54:41.352Z,-6.64
2023-02-05T20:57:09.602Z,-6.70
2023-02-05T20:59:38.799Z,-6.75
2023-02-05T21:02:07.365Z,-6.81
2023-02-05T21:04:36.727Z,-6.89
2023-02-05T21:07:04.954Z,-6.99
2023-02-05T21:09:33.339Z,-7.04
2023-02-05T21:12:01.501Z,-7.08
2023-02-05T21:14:29.697Z,-7.10
2023-02-05T21:16:57.677Z,-7.12
2023-02-05T21:19:25.676Z,-7.12
2023-02-05T21:21:53.907Z,-7.11
2023-02-05T21:24:22.067Z,-7.11
2023-02-05T21:26:50.358Z,-7.10
2023-02-05T21:29:21.026Z,-7.09
2023-02-05T21:31:55.910Z,-7.09
2023-02-05T21:34:28.085Z,-7.09
2023-02-05T21:36:56.651Z,-7.12
2023-02-05T21:39:25.758Z,-7.13
2023-02-05T21:41:54.536Z,-7.17
2023-02-05T21:44:23.061Z,-7.22
2023-02-05T21:46:53.354Z,-7.29
2023-02-05T21:49:22.269Z,-7.38
2023-02-05T21:51:53.573Z,-7.44
2023-02-05T21:54:25.596Z,-7.50
2023-02-05T21:56:54.551Z,-7.56
2023-02-05T21:59:22.936Z,-7.61
2023-02-05T22:01:52.080Z,-7.66
2023-02-05T22:04:21.495Z,-7.72
2023-02-05T22:06:50.220Z,-7.78
2023-02-05T22:09:18.492Z,-7.83
2023-02-05T22:11:52.606Z,-7.88
2023-02-05T22:14:20.578Z,-7.94
2023-02-05T22:16:48.715Z,-8.01
2023-02-05T22:19:17.019Z,-8.07
2023-02-05T22:21:45.409Z,-8.12
2023-02-05T22:24:16.566Z,-8.16
2023-02-05T22:26:45.796Z,-8.19
2023-02-05T22:29:16.657Z,-8.21
2023-02-05T22:31:46.623Z,-8.21
2023-02-05T22:34:14.623Z,-8.19
2023-02-05T22:36:42.852Z,-8.16
2023-02-05T22:39:11.239Z,-8.14
2023-02-05T22:41:42.684Z,-8.14
2023-02-05T22:44:11.657Z,-8.13
2023-02-05T22:46:44.583Z,-8.13
2023-02-05T22:49:15.524Z,-8.13
2023-02-05T22:51:45.290Z,-8.12
2023-02-05T22:54:15.404Z,-8.12
2023-02-05T22:56:44.508Z,-8.14
2023-02-05T22:59:13.195Z,-8.16
2023-02-05T23:01:41.378Z,-8.19
2023-02-05T23:04:10.284Z,-8.22
2023-02-05T23:06:41.079Z,-8.25
2023-02-05T23:09:16.338Z,-8.26
2023-02-05T23:11:44.832Z,-8.28
2023-02-05T23:14:15.056Z,-8.30
2023-02-05T23:16:45.744Z,-8.32
2023-02-05T23:19:20.250Z,-8.33
2023-02-05T23:21:48.980Z,-8.37
2023-02-05T23:24:18.082Z,-8.40
2023-02-05T23:26:48.659Z,-8.42
2023-02-05T23:29:17.401Z,-8.44
2023-02-05T23:31:45.759Z,-8.45
2023-02-05T23:34:14.155Z,-8.46
2023-02-05T23:36:42.237Z,-8.46
2023-02-05T23:39:10.625Z,-8.44
2023-02-05T23:41:40.288Z,-8.44
2023-02-05T23:44:13.123Z,-8.45
2023-02-05T23:46:43.186Z,-8.46
2023-02-05T23:49:11.737Z,-8.48
2023-02-05T23:51:40.407Z,-8.49
2023-02-05T23:54:10.254Z,-8.48
2023-02-05T23:56:38.315Z,-8.50
2023-02-05T23:59:07.617Z,-8.50
